Date,TemperatureHighF,TemperatureAvgF,TemperatureLowF,DewpointHighF,DewpointAvgF,DewpointLowF,HumidityHigh,HumidityAvg,HumidityLow,PressureMaxIn,PressureMinIn,WindSpeedMaxMPH,WindSpeedAvgMPH,GustSpeedMaxMPH,PrecipitationSumIn
2014-1-1,80,26,21,31,23,19,90,87,79,30.51,30.00,14,0,25,0.00
2014-1-2,35,29,22,32,27,19,94,92,90,30.50,29.75,3,0,4,0.04
2014-1-3,38,32,23,35,29,20,94,88,72,30.16,29.60,13,2,16,0.69
2014-1-4,28,22,14,25,19,10,93,87,73,30.59,30.14,0,0,0,0.00
2014-1-5,16,8,0,10,2,-5,84,75,60,31.04,30.61,4,0,7,0.00
2014-1-6,25,9,-2,13,4,-6,84,77,61,30.94,30.47,5,0,5,0.00
2014-1-7,30,19,12,20,14,8,86,80,66,30.47,30.20,3,0,3,0.00
2014-1-8,32,26,22,28,23,18,90,87,83,30.21,29.83,0,0,0,0.00
2014-1-9,35,31,28,32,28,24,93,87,75,29.90,29.71,9,1,11,0.02
2014-1-10,37,32,28,33,29,24,92,89,84,29.97,29.76,9,1,10,0.00
2014-1-11,46,37,32,39,32,28,95,83,60,29.92,29.28,21,2,21,0.33
2014-1-12,42,35,33,30,27,23,79,71,56,29.98,29.40,15,3,18,0.00
2014-1-13,47,39,36,35,32,29,86,76,54,30.37,29.89,12,3,15,0.22
2014-1-14,45,35,27,35,29,24,89,80,66,30.63,30.38,7,1,10,0.00
2014-1-15,45,33,26,33,27,22,89,79,56,30.58,30.30,9,1,9,0.00
2014-1-16,47,28,18,36,24,14,92,83,63,30.69,30.42,2,0,4,0.00
2014-1-17,46,24,13,33,18,9,90,81,59,30.60,30.29,2,0,4,0.00
2014-1-18,39,18,8,30,13,3,89,82,69,30.69,30.31,0,0,0,0.00
2014-1-19,36,22,12,30,19,8,90,86,80,30.58,30.14,0,0,0,0.00
2014-1-20,38,15,3,29,11,-1,90,82,67,30.85,30.50,0,0,0,0.00
2014-1-21,36,21,11,28,17,8,89,85,71,30.73,30.41,6,0,6,0.00
2014-1-22,40,26,16,31,22,12,90,85,70,30.65,30.30,4,0,4,0.00
2014-1-23,41,29,22,33,25,19,92,86,71,30.69,30.52,6,0,7,0.00
2014-1-24,36,31,28,31,27,26,92,87,77,30.70,30.58,7,0,7,0.00
2014-1-25,38,32,28,32,28,25,91,85,74,30.64,30.33,7,1,8,0.00
2014-1-26,36,29,22,31,23,15,91,79,58,30.46,30.29,9,1,12,0.00
2014-1-27,36,14,0,20,7,-5,85,74,49,30.73,30.39,3,0,4,0.00
2014-1-28,38,19,0,22,12,-6,84,73,50,30.74,30.20,5,0,7,0.00
2014-1-29,36,27,24,29,22,18,89,82,72,30.21,29.64,4,0,5,0.00
2014-1-30,26,18,6,22,11,2,87,72,62,30.19,29.82,10,1,13,0.00
2014-1-31,23,10,2,13,4,-2,84,77,61,30.35,30.07,4,0,4,0.00
2014-2-1,28,11,-10,15,4,-15,83,76,58,30.59,30.20,3,0,3,0.00
2014-2-2,29,19,14,20,14,10,86,80,68,30.30,30.06,3,0,4,0.00
2014-2-3,22,14,3,14,1,-11,86,55,40,30.66,30.14,12,4,12,0.00
2014-2-4,9,1,-9,-7,-14,-22,63,50,40,31.05,30.66,12,2,12,0.00
2014-2-5,14,-7,-21,-5,-19,-29,69,56,38,31.17,30.79,11,0,11,0.00
2014-2-6,14,-12,-21,-4,-23,-31,70,59,42,31.05,30.36,4,0,6,0.00
2014-2-7,17,-4,-21,4,-12,-31,74,66,55,30.56,30.11,8,0,8,0.00
2014-2-8,26,4,-11,8,-6,-17,81,64,38,30.54,30.27,8,0,11,0.00
2014-2-9,28,11,0,10,1,-7,74,63,43,30.47,30.21,7,0,8,0.00
2014-2-10,23,9,-10,14,3,-16,84,75,63,30.66,30.10,3,0,3,0.00
2014-2-11,46,31,19,31,23,15,90,75,49,30.21,29.91,11,0,11,0.00
2014-2-12,46,33,21,39,28,17,91,81,57,30.15,29.49,11,1,11,0.00
2014-2-13,45,35,28,38,29,24,92,79,61,30.10,29.66,12,1,17,0.00
2014-2-14,36,31,25,33,28,22,91,88,85,30.10,29.72,6,0,8,0.00
2014-2-15,51,36,28,39,30,26,93,80,48,30.10,29.59,5,0,6,0.00
2014-2-16,45,34,32,33,27,22,92,76,52,30.01,29.55,12,1,18,0.00
2014-2-17,37,35,31,33,28,21,88,75,58,29.93,29.58,22,1,22,0.00
2014-2-18,37,31,30,28,26,24,87,83,67,30.04,29.79,3,0,3,0.00
2014-2-23,10,8,7,3,2,1,76,76,75,30.44,30.36,0,0,0,0.00
2014-2-24,25,11,-6,7,1,-12,78,65,44,30.74,30.43,0,0,0,0.00
2014-2-25,36,6,-16,14,-5,-22,78,63,35,30.98,30.40,4,0,4,0.00
2014-2-26,38,9,-15,16,-1,-22,76,64,40,30.84,30.12,4,0,4,0.00
2014-2-27,42,27,17,24,17,11,76,66,48,30.16,29.65,8,0,14,0.00
2014-2-28,28,14,1,14,0,-14,72,55,43,30.52,29.92,13,2,16,0.00
2014-3-1,10,1,-5,-11,-15,-19,58,46,34,30.55,30.37,12,2,18,0.00
2014-3-2,7,0,-6,-1,-8,-16,77,68,58,30.54,30.19,0,0,0,0.00
2014-3-3,27,16,4,20,10,-1,86,77,66,30.19,29.91,0,0,0,0.00
2014-3-4,46,35,24,38,30,20,91,84,71,29.98,29.88,10,0,11,0.00
2014-3-5,44,36,33,43,34,31,95,92,89,29.98,29.69,12,0,12,0.00
2014-3-6,55,40,33,42,34,29,94,82,56,29.92,29.60,19,1,19,0.00
2014-3-7,52,40,35,39,34,29,91,78,55,30.34,29.92,11,1,11,0.00
2014-3-8,58,41,26,38,30,22,89,67,39,30.37,29.95,10,1,10,0.00
2014-3-9,46,39,35,44,36,31,93,90,76,30.00,29.83,6,0,8,0.00
2014-3-10,39,34,29,37,32,27,94,92,90,30.21,29.85,1,0,1,0.00
2014-3-11,53,36,26,41,30,23,94,79,48,30.58,30.22,7,0,8,0.00
2014-3-12,53,36,24,38,27,20,91,73,44,30.58,30.15,10,1,11,0.00
2014-3-13,58,37,20,37,25,17,90,68,35,30.24,29.89,9,1,9,0.00
2014-3-14,38,29,20,34,26,16,91,86,80,30.15,29.91,18,0,18,0.00
2014-3-15,52,37,28,39,30,24,92,78,49,30.43,30.12,9,1,9,0.00
2014-3-16,50,35,26,44,32,23,93,88,75,30.40,29.75,8,0,8,0.00
2014-3-17,50,36,31,42,32,28,93,87,67,30.10,29.56,8,0,8,0.00
2014-3-18,51,36,27,34,28,23,92,73,42,30.25,30.10,10,1,10,0.00
2014-3-19,55,34,26,35,27,23,90,77,39,30.26,29.91,8,0,12,0.00
2014-3-20,44,34,27,31,28,23,91,78,60,30.36,29.89,12,1,12,0.00
2014-3-21,41,27,14,24,18,8,86,70,44,30.59,30.30,8,1,8,0.00
2014-3-22,43,25,6,22,14,0,83,64,40,30.72,30.25,6,1,7,0.00
2014-3-23,55,35,22,34,25,17,89,70,39,30.42,30.08,12,0,12,0.00
2014-3-24,48,30,12,23,17,7,83,61,35,30.65,30.24,8,1,8,0.00
2014-3-25,59,37,16,32,24,11,84,60,32,30.28,29.50,8,0,8,0.00
2014-3-26,56,41,26,38,29,20,86,64,37,29.69,29.43,9,1,17,0.00
2014-3-27,40,29,20,31,24,16,88,81,62,30.00,29.65,4,0,6,0.00
2014-3-28,48,32,24,37,27,21,89,82,62,30.11,29.85,1,0,3,0.00
2014-3-29,58,41,32,45,32,26,93,73,40,29.88,29.61,14,1,14,0.00
2014-3-30,62,37,28,42,30,25,91,78,40,30.09,29.68,9,1,10,0.00
2014-3-31,56,35,27,38,29,23,89,78,51,30.14,29.87,6,0,6,0.00
2014-4-1,56,36,19,39,25,15,89,67,36,30.02,29.66,8,1,8,0.00
2014-4-2,57,36,20,34,23,16,87,64,30,30.07,29.70,7,1,8,0.00
2014-4-3,60,38,20,36,25,15,86,62,35,30.21,29.84,9,1,9,0.00
2014-4-4,52,39,31,41,32,24,86,76,54,29.99,29.71,8,0,12,0.00
2014-4-5,55,40,29,41,29,26,89,68,44,30.04,29.85,11,1,15,0.00
2014-4-6,56,42,29,45,33,23,92,73,40,30.29,29.90,11,1,12,0.00
2014-4-7,66,46,26,39,30,22,89,61,32,30.38,30.06,11,1,11,0.00
2014-4-8,71,48,25,44,31,22,88,58,26,30.31,29.77,14,1,14,0.00
2014-4-9,65,50,30,38,29,19,72,48,28,30.13,29.75,13,2,13,0.00
2014-4-10,64,44,26,35,25,21,84,54,24,30.19,29.87,15,1,15,0.00
2014-4-11,60,42,28,35,29,22,82,62,37,30.16,29.71,9,0,11,0.00
2014-4-12,45,34,24,34,25,14,89,71,45,30.40,29.95,12,1,12,0.00
2014-4-13,52,33,12,23,16,6,82,54,27,30.63,30.27,8,0,10,0.00
2014-4-14,62,39,15,30,21,10,84,53,26,30.54,29.87,13,1,13,0.00
2014-4-15,52,38,26,35,28,20,85,70,44,30.03,29.74,14,0,14,0.00
2014-4-16,57,37,28,43,32,24,90,82,56,30.11,29.91,6,0,6,0.00
2014-4-17,48,39,34,44,36,31,92,90,86,30.07,29.77,5,0,5,0.00
2014-4-18,57,42,33,42,33,24,93,74,40,30.11,29.69,17,2,17,0.00
2014-4-19,64,46,26,41,31,23,91,60,29,30.16,29.71,12,1,12,0.00
2014-4-20,57,45,28,34,31,22,79,60,38,30.39,29.93,14,2,14,0.00
2014-4-21,70,46,23,39,30,19,89,59,27,30.45,29.80,8,0,8,0.00
2014-4-22,59,44,27,42,34,23,88,70,45,29.95,29.57,8,0,8,0.00
2014-4-23,64,44,32,36,29,25,83,58,33,29.94,29.61,15,3,20,0.00
2014-4-24,50,39,32,45,34,25,89,84,75,29.96,29.77,9,0,9,0.18
2014-4-25,68,49,33,48,35,30,93,64,35,29.93,29.57,8,0,8,0.06
2014-4-26,53,43,37,40,35,32,88,74,56,29.77,29.59,8,1,8,0.00
2014-4-27,60,43,29,45,33,27,92,69,43,29.95,29.62,8,1,11,0.08
2014-4-28,60,44,32,36,29,23,80,58,34,30.52,29.94,9,2,13,0.00
2014-4-29,67,46,23,39,29,19,88,56,30,30.78,30.44,9,0,9,0.00
2014-4-30,71,50,24,40,31,20,88,54,28,30.81,30.22,8,0,9,0.00
2014-5-1,78,55,27,44,36,23,88,54,29,30.51,29.87,11,0,11,0.00
2014-5-2,79,56,34,48,39,30,87,56,32,30.10,29.67,11,1,11,0.00
2014-5-3,48,40,32,36,33,29,88,75,57,30.00,29.90,4,0,10,0.08
2014-5-4,61,43,32,49,37,29,92,80,49,29.96,29.69,9,0,18,0.12
2014-5-5,63,44,36,49,39,32,92,82,51,29.95,29.71,5,0,7,0.33
2014-5-6,66,44,34,48,34,26,92,70,44,30.06,29.74,14,1,14,0.00
2014-5-7,64,44,32,39,30,25,85,61,38,30.11,29.81,8,0,10,0.00
2014-5-8,71,49,24,42,32,20,88,55,31,30.08,29.60,9,0,10,0.00
2014-5-9,58,42,34,48,38,27,90,83,67,29.95,29.68,14,0,14,0.31
2014-5-10,70,45,35,49,38,33,93,77,42,30.24,29.77,15,0,15,0.14
2014-5-11,61,44,28,41,29,20,89,60,32,30.55,30.23,9,1,16,0.00
2014-5-12,69,47,22,40,28,18,88,53,29,30.70,30.27,8,0,8,0.00
2014-5-13,75,51,26,42,32,21,88,52,27,30.67,30.22,8,0,8,0.00
2014-5-14,79,56,31,45,37,26,87,55,29,30.54,30.04,8,0,9,0.00
2014-5-15,82,60,34,52,41,31,90,55,29,30.33,29.82,9,0,14,0.00
2014-5-16,75,59,43,48,42,36,79,56,36,30.22,29.87,8,0,9,0.00
2014-5-17,74,54,36,52,42,33,91,69,38,30.08,29.63,4,0,7,0.00
2014-5-18,74,52,33,51,40,30,91,67,34,29.88,29.49,9,0,9,0.10
2014-5-19,65,50,38,52,42,34,90,76,57,30.05,29.78,10,0,10,0.12
2014-5-20,79,56,34,52,42,31,91,64,37,30.17,29.81,9,0,9,0.00
2014-5-21,82,59,32,51,42,29,90,58,32,30.19,29.76,9,0,9,0.00
2014-5-22,88,62,36,53,44,33,91,57,29,30.18,29.79,7,0,12,0.00
2014-5-23,91,65,37,55,45,34,91,54,28,30.16,29.65,8,0,13,0.00
2014-5-24,83,61,49,58,50,44,90,68,40,30.02,29.80,7,0,13,0.00
2014-5-25,77,60,38,52,45,34,92,61,33,30.15,29.73,7,0,9,0.00
2014-5-26,76,58,47,54,46,38,89,65,41,30.09,29.78,11,1,15,0.00
2014-5-27,85,60,34,50,41,31,92,55,28,30.22,29.77,7,0,7,0.00
2014-5-28,69,56,48,53,47,40,92,73,49,30.03,29.75,7,0,7,0.12
2014-5-29,62,48,35,46,39,31,85,71,49,30.27,30.02,19,0,19,0.00
2014-5-30,80,55,28,50,37,25,92,57,24,30.36,29.85,10,0,10,0.00
2014-5-31,88,62,34,51,41,30,90,53,25,30.11,29.68,7,0,7,0.00
2014-6-1,87,63,42,54,45,37,88,57,30,30.07,29.72,8,0,13,0.00
2014-6-2,87,61,36,54,44,33,92,60,30,30.11,29.70,8,0,12,0.00
2014-6-3,66,50,39,55,45,35,91,84,64,29.97,29.74,6,0,11,0.16
2014-6-4,81,57,40,58,46,38,93,70,42,30.06,29.73,8,0,8,0.00
2014-6-5,83,56,37,53,43,34,92,64,36,30.06,29.72,7,0,7,0.00
2014-6-6,84,57,35,50,39,31,89,57,28,30.20,29.86,9,0,9,0.00
2014-6-7,83,56,29,51,38,25,92,55,27,30.24,29.85,9,0,10,0.00
2014-6-8,88,61,32,52,41,28,90,54,27,30.26,29.80,9,0,9,0.00
2014-6-9,84,60,37,55,41,34,91,55,27,30.00,29.63,13,1,18,0.00
2014-6-10,83,56,36,49,41,32,88,63,29,30.01,29.63,10,0,19,0.00
2014-6-11,86,60,39,53,43,36,91,58,30,30.13,29.84,8,0,8,0.00
2014-6-12,86,62,36,52,44,32,89,56,29,30.07,29.53,4,0,8,0.00
2014-6-13,64,51,41,51,44,38,92,79,53,29.92,29.71,15,0,16,0.14
2014-6-14,64,49,42,52,46,38,93,87,62,29.93,29.77,0,0,0,0.14
2014-6-15,64,52,46,51,46,42,93,81,58,29.91,29.65,8,0,8,0.08
2014-6-16,77,53,39,55,44,36,93,73,42,29.81,29.50,9,0,9,0.00
2014-6-17,47,42,35,45,40,33,92,90,85,30.13,29.78,4,0,6,0.67
2014-6-18,43,40,35,41,38,33,93,92,91,30.11,29.97,1,0,1,0.06
2014-6-19,71,52,41,58,47,39,95,84,59,30.00,29.77,5,0,5,0.02
2014-6-20,90,62,34,57,46,31,94,61,32,30.11,29.69,10,0,11,0.02
2014-6-21,91,64,38,58,43,35,93,55,23,30.11,29.76,10,0,10,0.10
2014-6-22,94,66,40,58,45,36,89,55,26,30.15,29.76,8,0,8,0.00
2014-6-23,95,69,42,58,48,37,90,53,28,30.18,29.78,6,0,7,0.00
2014-6-24,92,65,41,59,50,38,91,61,32,30.11,29.70,7,0,8,0.00
2014-6-25,91,67,46,62,50,44,92,59,33,30.00,29.65,8,0,8,0.00
2014-6-26,66,56,51,57,50,44,88,82,72,29.81,29.65,0,0,0,0.00
2014-6-27,68,56,51,56,50,48,91,81,61,29.79,29.63,4,0,4,0.00
2014-6-28,68,54,46,56,50,43,92,84,61,29.96,29.76,8,0,8,0.10
2014-6-29,73,56,41,59,47,39,94,74,51,30.09,29.81,9,0,9,0.04
2014-6-30,86,62,38,57,47,36,93,62,33,30.25,29.95,11,0,12,0.00
2014-7-1,92,66,38,60,48,35,92,59,32,30.35,29.84,7,0,7,0.00
2014-7-2,94,71,42,60,52,39,92,58,29,30.13,29.64,4,0,4,0.00
2014-7-3,96,69,48,66,55,45,92,65,35,29.98,29.61,5,0,9,0.00
2014-7-4,99,70,45,62,49,41,92,54,25,30.04,29.65,9,0,12,0.00
2014-7-5,94,66,42,57,47,38,88,55,27,30.09,29.79,13,0,15,0.00
2014-7-6,97,69,44,62,51,40,91,57,32,30.20,29.77,10,0,11,0.00
2014-7-7,97,74,50,63,54,46,91,55,31,30.16,29.83,9,0,9,0.00
2014-7-8,98,72,45,62,54,42,93,58,31,30.17,29.70,7,0,8,0.00
2014-7-9,98,74,47,65,55,44,93,57,31,30.01,29.53,7,0,15,0.00
2014-7-10,100,72,45,64,51,42,92,54,24,29.94,29.53,9,0,10,0.00
2014-7-11,92,71,49,60,52,42,85,56,31,30.09,29.78,11,0,11,0.00
2014-7-12,98,72,44,64,52,41,91,57,27,30.27,29.87,6,0,7,0.00
2014-7-13,98,74,44,64,53,40,92,56,23,30.31,29.82,8,0,8,0.00
2014-7-14,94,71,52,67,57,49,90,65,36,30.20,29.85,4,0,5,0.00
2014-7-15,86,68,56,65,59,52,94,75,44,30.11,29.81,0,0,0,0.00
2014-7-16,92,71,48,66,58,45,93,68,41,30.11,29.65,0,0,0,0.00
2014-7-17,98,73,50,68,56,48,93,61,26,29.92,29.47,0,0,0,0.00
2014-7-18,92,68,47,61,51,43,91,59,33,29.92,29.62,9,0,12,0.00
2014-7-19,90,67,47,60,52,44,91,63,35,29.89,29.58,12,1,12,0.00
2014-7-20,82,66,56,60,56,51,87,69,45,29.81,29.62,7,0,11,0.00
2014-7-21,93,69,47,65,52,40,93,59,29,30.09,29.68,12,1,12,0.00
2014-7-22,82,60,43,59,49,39,89,70,40,30.21,29.95,5,0,6,0.00
2014-7-23,92,70,52,66,57,49,94,67,37,30.19,29.61,8,0,8,0.00
2014-7-24,79,60,51,54,46,39,89,63,35,30.07,29.84,10,2,12,0.00
2014-7-25,84,63,46,54,46,41,89,59,35,30.09,29.80,17,2,17,0.00
2014-7-26,89,65,38,57,47,34,91,58,31,30.27,29.94,8,1,12,0.00
2014-7-27,90,66,38,58,47,34,91,58,27,30.38,29.92,6,0,6,0.00
2014-7-28,93,62,43,64,50,39,91,69,28,30.30,29.84,6,0,6,0.00
2014-7-29,98,72,42,64,52,39,92,58,24,30.27,29.76,12,0,12,0.00
2014-7-30,96,68,45,64,53,42,92,64,32,30.22,29.80,6,0,8,0.00
2014-7-31,97,70,45,62,52,42,92,60,25,30.23,29.75,8,0,8,0.00
2014-8-1,97,72,46,64,53,42,87,58,24,30.19,29.74,7,0,16,0.00
2014-8-2,95,73,56,65,58,52,92,65,32,30.13,29.76,6,0,8,0.00
2014-8-3,85,67,53,64,57,49,91,73,41,30.14,29.82,11,0,12,0.00
2014-8-4,94,70,49,64,54,46,92,63,26,30.14,29.68,5,0,7,0.00
2014-8-5,92,71,48,63,55,45,91,62,33,30.09,29.68,6,0,7,0.00
2014-8-6,94,69,47,63,53,44,92,62,25,30.06,29.64,6,0,6,0.00
2014-8-7,92,67,41,58,48,37,90,58,27,30.12,29.65,8,0,8,0.00
2014-8-8,92,66,41,59,49,38,91,59,26,30.09,29.66,8,0,11,0.00
2014-8-9,90,65,41,58,48,38,90,59,27,30.22,29.86,6,0,7,0.00
2014-8-10,92,66,40,58,48,36,90,59,25,30.31,29.89,6,0,8,0.00
2014-8-11,96,68,41,62,50,37,90,58,26,30.31,29.76,6,0,6,0.00
2014-8-12,94,67,45,62,52,42,90,63,30,30.11,29.70,8,0,8,0.00
2014-8-13,95,72,49,64,54,46,91,60,30,30.03,29.65,9,1,9,0.00
2014-8-14,82,67,57,64,57,50,88,71,48,29.97,29.76,12,0,12,0.00
2014-8-15,86,67,54,64,56,51,93,71,45,30.05,29.81,8,0,11,0.00
2014-8-16,74,59,49,63,54,46,93,84,61,30.08,29.91,6,0,7,0.00
2014-8-17,84,67,53,64,57,50,94,73,43,30.07,29.84,6,0,7,0.00
2014-8-18,87,66,46,64,54,44,93,71,40,30.11,29.63,5,0,7,0.00
2014-8-19,90,63,45,63,53,42,93,74,37,29.86,29.49,10,0,10,0.00
2014-8-20,80,59,47,64,52,44,94,80,51,29.98,29.67,8,0,14,0.00
2014-8-21,70,56,46,56,50,43,94,81,54,30.13,29.94,8,0,8,0.02
2014-8-22,73,57,47,53,46,40,91,70,44,30.19,29.94,10,1,10,0.00
2014-8-23,72,56,45,48,43,39,85,64,42,30.22,30.04,10,1,10,0.00
2014-8-24,72,54,36,51,43,34,91,70,43,30.23,29.91,8,0,8,0.00
2014-8-25,75,55,33,51,42,30,92,66,34,30.30,29.84,8,0,8,0.00
2014-8-26,82,59,35,54,45,32,91,65,36,30.26,29.84,7,0,8,0.00
2014-8-27,85,62,38,59,48,36,92,66,35,30.22,29.77,7,0,8,0.00
2014-8-28,87,64,41,60,48,38,92,64,30,30.09,29.68,12,0,12,0.00
2014-8-29,84,63,43,58,50,40,93,66,34,30.10,29.59,8,0,9,0.00
2014-8-30,82,62,43,54,45,37,88,57,32,29.87,29.59,10,0,11,0.00
2014-8-31,66,52,41,54,44,36,90,77,56,29.99,29.77,8,0,8,0.04
2014-9-1,73,55,46,58,47,43,93,76,47,30.04,29.83,4,0,7,0.00
2014-9-2,76,56,38,53,45,35,92,70,39,30.01,29.55,8,0,8,0.00
2014-9-3,58,46,38,50,43,36,93,88,73,30.19,29.67,8,0,8,0.08
2014-9-4,70,51,38,50,42,34,94,74,43,30.29,30.01,7,0,7,0.00
2014-9-5,74,50,29,50,39,26,91,70,35,30.48,30.04,7,0,7,0.00
2014-9-6,78,53,31,50,40,28,91,67,31,30.43,29.88,7,0,7,0.00
2014-9-7,81,54,30,53,41,27,90,67,29,30.16,29.62,6,0,7,0.00
2014-9-8,82,54,30,53,41,28,90,65,31,30.00,29.56,10,0,10,0.00
2014-9-9,56,45,37,39,33,28,81,64,50,30.21,30.01,12,0,12,0.00
2014-9-10,47,39,29,40,34,25,90,82,65,30.62,30.19,9,0,10,0.16
2014-9-11,57,39,24,38,28,21,89,68,37,30.72,30.33,6,0,7,0.00
2014-9-12,62,40,20,38,28,16,86,67,38,30.57,30.04,2,0,3,0.00
2014-9-13,67,44,25,42,32,21,89,67,33,30.43,29.94,6,0,6,0.00
2014-9-14,74,46,26,47,34,22,89,69,33,30.30,29.89,5,0,5,0.00
2014-9-15,79,50,28,49,38,25,89,68,31,30.31,29.83,4,0,8,0.00
2014-9-16,83,52,29,54,41,26,90,69,33,30.23,29.69,3,0,4,0.00
2014-9-17,85,58,39,59,47,36,91,71,37,30.01,29.55,7,0,7,0.00
2014-9-18,77,56,40,56,46,38,93,74,36,29.80,29.51,7,0,8,0.00
2014-9-19,74,59,46,61,51,42,93,76,45,30.14,29.75,13,0,13,0.00
2014-9-20,80,55,37,55,45,34,92,73,38,30.34,29.98,7,0,7,0.00
2014-9-21,85,55,34,58,44,32,91,71,34,30.34,29.76,3,0,6,0.00
2014-9-22,84,56,35,54,44,33,91,70,35,30.11,29.68,7,0,10,0.00
2014-9-23,80,58,42,58,49,39,93,74,42,30.08,29.75,6,0,6,0.00
2014-9-24,77,52,41,57,47,38,92,83,50,29.97,29.69,0,0,0,0.00
2014-10-1,52,47,44,39,38,37,80,70,58,30.04,29.99,8,0,9,0.00
2014-10-2,55,43,25,38,32,20,83,65,45,30.58,29.99,9,1,11,0.00
2014-10-3,61,38,21,40,29,17,90,73,39,30.64,30.23,8,0,9,0.00
2014-10-4,71,50,34,46,38,29,87,68,37,30.35,29.94,11,0,11,0.00
2014-10-5,71,51,32,49,40,29,91,71,43,30.29,29.90,6,0,6,0.00
2014-10-6,77,56,38,53,45,36,92,70,42,30.09,29.71,9,0,9,0.00
2014-10-7,78,58,43,56,48,39,92,72,42,30.01,29.69,0,0,0,0.00
2014-10-8,72,51,36,54,44,34,93,79,48,30.04,29.78,0,0,0,0.00
2014-10-9,47,47,47,43,43,43,87,87,86,30.03,30.03,0,0,0,0.00
2014-10-12,50,48,43,37,36,34,72,65,58,30.18,30.10,4,0,4,0.00
2014-10-13,64,46,34,47,37,30,91,74,44,30.23,29.86,1,0,3,0.00
2014-10-14,64,44,28,50,36,25,93,75,44,29.97,29.68,0,0,0,0.00
2014-10-15,64,46,35,47,40,31,91,80,51,29.98,29.46,10,0,10,0.14
2014-10-16,52,46,29,47,40,26,92,80,68,30.27,29.98,8,0,8,0.00
2014-10-17,58,38,26,52,34,23,93,85,60,30.30,29.90,0,0,0,0.00
2014-10-18,61,44,32,49,39,29,94,85,63,30.17,29.96,0,0,0,0.00
2014-10-19,68,43,30,54,38,27,94,85,59,30.22,29.81,0,0,0,0.00